• Join FlightAware (Why Join?)
  • Login
  • US Flag 
12:11AM EDT


 

Airport Tracker/Info


-or-


 

Live Flight TrackerFlight Track Log ✈ N762NC ✈ 10-Oct-2013 ✈ KATL - KPIT

Flight Track Log - Related Links

Times and Time Zones

All times are in EDT time to prevent confusion due to time zone crossing. See the N762NC flight status page for this flight to view local times or setup timezone preferences in your user account.

Time Position Orientation Groundspeed Altitude Reporting Facility
EDT Latitude Longitude Course Direction KTS MPH feet Rate Location/Type
01:31PM 33.6500 -84.4833 North 203 234 3,100  Level Atlanta TRACON
01:32PM 33.6667 -84.5667 284° West 257 296 5,700 2,520 Climbing Atlanta TRACON
01:33PM 33.7167 -84.6333 312° West 262 302 8,000 2,160 Climbing Atlanta TRACON
01:34PM 34.0295 -84.2089 12° North  Level Estimated
01:34PM 33.7833 -84.6333 360° North 273 314 9,900  Level Atlanta TRACON
01:35PM 34.1377 -84.2045 North  Level FlightAware Approximate
01:35PM 33.9119 -84.5969 13° North 306 352 10,500  Level Atlanta Center
01:36PM 34.2459 -84.2000 North  Level FlightAware Approximate
01:36PM 33.9997 -84.5600 19° North 340 391 11,900  Level Atlanta Center
01:37PM 34.0958 -84.5206 19° North 359 413 13,800 1,800 Climbing Atlanta Center
01:38PM 34.1964 -84.4833 17° North 370 426 15,600 1,800 Climbing Atlanta Center
01:39PM 34.3008 -84.4436 17° North 382 440 17,500 1,620 Climbing Atlanta Center
01:40PM 34.4136 -84.3964 19° North 387 445 18,900 1,440 Climbing Atlanta Center
01:41PM 34.5222 -84.3589 16° North 393 452 20,400 1,500 Climbing Atlanta Center
01:42PM 34.6289 -84.3139 19° North 398 458 22,000 1,440 Climbing Atlanta Center
01:43PM 34.7394 -84.2689 18° North 403 464 23,300 1,260 Climbing Atlanta Center
01:44PM 34.8461 -84.2158 22° Northeast 409 471 24,600 840 Climbing Atlanta Center
01:45PM 34.9567 -84.1603 22° Northeast 409 471 25,000 420 Climbing Atlanta Center
01:46PM 35.0736 -84.1072 20° North 428 493 25,500 660 Climbing Atlanta Center
01:47PM 35.1883 -84.0769 12° North 428 493 26,400 900 Climbing Atlanta Center
01:48PM 35.3072 -84.0667 North 423 487 27,300 840 Climbing Atlanta Center
01:49PM 35.4200 -84.0542 North 417 480 28,100 780 Climbing Atlanta Center
01:50PM 35.5306 -84.0208 14° North 412 474 28,900 420 Climbing Atlanta Center
01:51PM 35.6389 -83.9722 20° North 405 466 29,000  Climbing Atlanta Center
01:52PM 35.7411 -83.9389 15° North 411 473 29,000  Level Atlanta Center
01:53PM 35.8600 -83.9261 North 417 480 29,000 60 Level Atlanta Center
01:54PM 35.9747 -83.8900 14° North 417 480 29,200 480 Climbing Atlanta Center
01:55PM 36.0789 -83.8203 28° Northeast 417 480 30,000 780 Climbing Atlanta Center
01:56PM 36.1642 -83.7147 45° Northeast 417 480 30,800 720 Climbing Atlanta Center
01:57PM 36.2408 -83.6383 39° Northeast 428 493 31,400 720 Climbing Indianapolis Center
01:58PM 36.3467 -83.5764 25° Northeast 423 487 32,200 720 Climbing Indianapolis Center
01:59PM 36.4556 -83.5231 21° North 422 486 32,900 720 Climbing Indianapolis Center
02:00PM 36.5811 -83.4406 28° Northeast 426 490 33,700 720 Climbing Indianapolis Center
02:01PM 36.6839 -83.3644 31° Northeast 427 491 34,400 600 Climbing Indianapolis Center
02:02PM 36.7914 -83.3006 25° Northeast 425 489 35,000 240 Climbing Indianapolis Center
02:03PM 36.8983 -83.2297 28° Northeast 428 493 35,000  Level Indianapolis Center
02:04PM 37.0061 -83.1517 30° Northeast 438 504 35,000  Level Indianapolis Center
02:05PM 37.1164 -83.0828 26° Northeast 436 502 35,000  Level Indianapolis Center
02:06PM 37.2236 -83.0122 28° Northeast 431 496 35,000  Level Indianapolis Center
02:08PM 37.3286 -82.9364 30° Northeast 431 496 35,000  Level Indianapolis Center
02:09PM 37.4528 -82.8539 28° Northeast 433 498 35,000  Level Indianapolis Center
02:10PM 37.5578 -82.7722 32° Northeast 442 509 35,000  Level Indianapolis Center
02:11PM 37.6683 -82.7086 24° Northeast 439 505 35,000  Level Indianapolis Center
02:12PM 37.7833 -82.6528 21° North 441 507 35,000  Level Indianapolis Center
02:13PM 37.9003 -82.6058 18° North 441 507 35,000  Level Indianapolis Center
02:14PM 38.0192 -82.5689 14° North 439 505 35,000  Level Indianapolis Center
02:15PM 38.1553 -82.5072 20° North 443 510 35,000  Level Indianapolis Center
02:16PM 38.2608 -82.4247 32° Northeast 447 514 35,000  Level Indianapolis Center
02:17PM 38.3547 -82.3169 42° Northeast 451 519 35,000  Level Indianapolis Center
02:18PM 38.4578 -82.2236 35° Northeast 453 521 35,000 -180 Level Indianapolis Center
02:19PM 38.5672 -82.1419 30° Northeast 454 522 34,700 -420 Descending Indianapolis Center
02:20PM 38.6883 -82.0794 22° Northeast 463 533 34,200 -600 Descending Indianapolis Center
02:21PM 38.8072 -82.0022 27° Northeast 476 548 33,500 -720 Descending Indianapolis Center
02:22PM 38.9067 -81.8825 43° Northeast 483 556 32,800 -900 Descending Indianapolis Center
02:23PM 39.0303 -81.7558 39° Northeast 470 541 31,700 -1,500 Descending Indianapolis Center
02:24PM 39.1403 -81.6753 30° Northeast 454 522 29,700 -2,220 Descending Indianapolis Center
02:25PM 39.2478 -81.5889 32° Northeast 454 522 27,200 -2,400 Descending Indianapolis Center
02:26PM 39.3372 -81.4731 45° Northeast 451 519 24,800 -2,340 Descending Indianapolis Center
02:27PM 39.4414 -81.3831 34° Northeast 451 519 22,400 -1,920 Descending Indianapolis Center
02:28PM 39.5442 -81.2969 33° Northeast 441 507 20,900 -960 Descending Indianapolis Center
02:29PM 39.6303 -81.1956 42° Northeast 425 489 20,500 -1,080 Descending Indianapolis Center
02:30PM 39.7419 -81.0967 34° Northeast 409 471 18,700 -1,740 Descending Indianapolis Center
02:31PM 39.8361 -81.0142 34° Northeast 408 470 17,000 -2,340 Descending Indianapolis Center
02:32PM 39.9139 -80.9292 40° Northeast 371 427 13,900 -3,000 Descending Indianapolis Center
02:33PM 39.9994 -80.8428 38° Northeast 364 419 10,800 -1,920 Descending Indianapolis Center
02:34PM 40.0836 -80.7858 27° Northeast 340 391 10,000 -420 Descending Indianapolis Center
02:35PM 40.1544 -80.7397 26° Northeast 294 338 10,000  Level Indianapolis Center
02:37PM 40.2200 -80.6914 29° Northeast 273 314 10,000 -780 Level Cleveland Center
02:38PM 40.2817 -80.6414 32° Northeast 263 303 8,400 -1,860 Descending Cleveland Center
02:39PM 40.3442 -80.5631 44° Northeast 261 300 6,200 -1,980 Descending Cleveland Center
02:40PM 40.3964 -80.5044 41° Northeast 248 285 4,400 -1,320 Descending Cleveland Center
02:41PM 40.4450 -80.4569 37° Northeast 223 257 3,500 -540 Descending Cleveland Center
02:42PM 40.4844 -80.4097 42° Northeast 201 231 3,300 -360 Descending Cleveland Center
02:43PM 40.5053 -80.3594 61° Northeast 175 201 2,800 -780 Descending Cleveland Center
02:44PM 40.5031 -80.3064 93° East 156 180 1,800 -1,020 Descending Cleveland Center